sensor_id;sensor_type;location;lat;lon;timestamp;pressure;altitude;pressure_sealevel;temperature;humidity
46782;BME280;32541;46.298;11.506;2023-04-20T00:00:57;88974.34;;;5.49;82.72
46782;BME280;32541;46.298;11.506;2023-04-20T00:03:22;88979.16;;;5.41;83.77
46782;BME280;32541;46.298;11.506;2023-04-20T00:05:48;88977.41;;;5.36;84.12
46782;BME280;32541;46.298;11.506;2023-04-20T00:08:14;88968.72;;;5.30;83.69
46782;BME280;32541;46.298;11.506;2023-04-20T00:10:42;88964.75;;;5.31;83.38
46782;BME280;32541;46.298;11.506;2023-04-20T00:13:07;88968.41;;;5.26;83.54
46782;BME280;32541;46.298;11.506;2023-04-20T00:15:33;88966.41;;;5.27;83.48
46782;BME280;32541;46.298;11.506;2023-04-20T00:17:58;88969.22;;;5.19;84.37
46782;BME280;32541;46.298;11.506;2023-04-20T00:20:24;88967.44;;;5.14;84.21
46782;BME280;32541;46.298;11.506;2023-04-20T00:22:49;88959.97;;;5.15;84.72
46782;BME280;32541;46.298;11.506;2023-04-20T00:25:15;88958.91;;;4.93;85.70
46782;BME280;32541;46.298;11.506;2023-04-20T00:27:40;88950.59;;;4.91;85.55
46782;BME280;32541;46.298;11.506;2023-04-20T00:30:06;88953.94;;;4.99;85.07
46782;BME280;32541;46.298;11.506;2023-04-20T00:32:31;88959.00;;;5.02;85.24
46782;BME280;32541;46.298;11.506;2023-04-20T00:34:57;88958.06;;;5.08;85.11
46782;BME280;32541;46.298;11.506;2023-04-20T00:37:22;88953.09;;;5.14;84.64
46782;BME280;32541;46.298;11.506;2023-04-20T00:39:50;88947.31;;;5.10;84.83
46782;BME280;32541;46.298;11.506;2023-04-20T00:42:15;88945.25;;;5.18;84.44
46782;BME280;32541;46.298;11.506;2023-04-20T00:44:40;88945.38;;;5.20;84.39
46782;BME280;32541;46.298;11.506;2023-04-20T00:47:06;88932.19;;;5.16;84.17
46782;BME280;32541;46.298;11.506;2023-04-20T00:49:31;88931.38;;;5.23;83.86
46782;BME280;32541;46.298;11.506;2023-04-20T00:51:57;88934.91;;;5.16;83.78
46782;BME280;32541;46.298;11.506;2023-04-20T00:54:25;88928.00;;;5.15;83.49
46782;BME280;32541;46.298;11.506;2023-04-20T00:56:51;88932.00;;;5.14;84.16
46782;BME280;32541;46.298;11.506;2023-04-20T00:59:16;88936.19;;;5.15;83.96
46782;BME280;32541;46.298;11.506;2023-04-20T01:01:41;88931.94;;;5.04;84.63
46782;BME280;32541;46.298;11.506;2023-04-20T01:04:08;88923.19;;;5.06;84.76
46782;BME280;32541;46.298;11.506;2023-04-20T01:06:33;88922.06;;;5.09;84.96
46782;BME280;32541;46.298;11.506;2023-04-20T01:08:59;88924.88;;;5.01;85.27
46782;BME280;32541;46.298;11.506;2023-04-20T01:11:24;88927.63;;;5.01;85.46
46782;BME280;32541;46.298;11.506;2023-04-20T01:13:49;88925.69;;;4.94;85.62
46782;BME280;32541;46.298;11.506;2023-04-20T01:16:15;88922.63;;;4.90;86.43
46782;BME280;32541;46.298;11.506;2023-04-20T01:18:50;88916.47;;;4.90;86.46
46782;BME280;32541;46.298;11.506;2023-04-20T01:21:17;88916.91;;;4.79;87.43
46782;BME280;32541;46.298;11.506;2023-04-20T01:23:43;88919.75;;;4.88;87.12
46782;BME280;32541;46.298;11.506;2023-04-20T01:26:11;88919.00;;;4.71;88.38
46782;BME280;32541;46.298;11.506;2023-04-20T01:28:37;88915.88;;;4.74;87.64
46782;BME280;32541;46.298;11.506;2023-04-20T01:31:04;88921.91;;;4.90;87.77
46782;BME280;32541;46.298;11.506;2023-04-20T01:33:30;88915.75;;;4.89;87.41
46782;BME280;32541;46.298;11.506;2023-04-20T01:35:55;88922.31;;;4.86;87.53
46782;BME280;32541;46.298;11.506;2023-04-20T01:38:22;88919.34;;;4.92;87.56
46782;BME280;32541;46.298;11.506;2023-04-20T01:40:48;88914.63;;;4.92;87.41
46782;BME280;32541;46.298;11.506;2023-04-20T01:43:14;88901.50;;;4.98;86.88
46782;BME280;32541;46.298;11.506;2023-04-20T01:45:39;88903.31;;;4.96;87.18
46782;BME280;32541;46.298;11.506;2023-04-20T01:48:05;88893.53;;;4.93;88.12
46782;BME280;32541;46.298;11.506;2023-04-20T01:50:30;88895.63;;;5.02;87.58
46782;BME280;32541;46.298;11.506;2023-04-20T01:52:56;88896.25;;;4.93;87.88
46782;BME280;32541;46.298;11.506;2023-04-20T01:55:21;88898.81;;;4.91;87.83
46782;BME280;32541;46.298;11.506;2023-04-20T01:57:46;88893.53;;;4.93;88.50
46782;BME280;32541;46.298;11.506;2023-04-20T02:00:12;88893.38;;;4.91;88.41
46782;BME280;32541;46.298;11.506;2023-04-20T02:02:38;88891.78;;;4.88;88.82
46782;BME280;32541;46.298;11.506;2023-04-20T02:05:03;88890.66;;;4.91;88.88
46782;BME280;32541;46.298;11.506;2023-04-20T02:07:29;88889.38;;;4.92;88.51
46782;BME280;32541;46.298;11.506;2023-04-20T02:09:54;88885.94;;;4.91;88.40
46782;BME280;32541;46.298;11.506;2023-04-20T02:12:20;88881.94;;;4.92;88.37
46782;BME280;32541;46.298;11.506;2023-04-20T02:14:45;88879.44;;;4.87;89.21
46782;BME280;32541;46.298;11.506;2023-04-20T02:17:11;88878.78;;;4.96;88.59
46782;BME280;32541;46.298;11.506;2023-04-20T02:19:36;88869.91;;;4.95;88.41
46782;BME280;32541;46.298;11.506;2023-04-20T02:22:02;88881.28;;;5.01;88.47
46782;BME280;32541;46.298;11.506;2023-04-20T02:24:27;88864.31;;;5.11;88.17
46782;BME280;32541;46.298;11.506;2023-04-20T02:26:53;88866.13;;;5.25;88.22
46782;BME280;32541;46.298;11.506;2023-04-20T02:29:18;88874.97;;;5.16;88.23
46782;BME280;32541;46.298;11.506;2023-04-20T02:31:43;88875.59;;;5.07;89.04
46782;BME280;32541;46.298;11.506;2023-04-20T02:34:09;88870.16;;;5.07;89.16
46782;BME280;32541;46.298;11.506;2023-04-20T02:36:35;88878.34;;;4.90;91.31
46782;BME280;32541;46.298;11.506;2023-04-20T02:39:00;88878.63;;;4.94;90.52
46782;BME280;32541;46.298;11.506;2023-04-20T02:41:26;88878.16;;;4.88;91.01
46782;BME280;32541;46.298;11.506;2023-04-20T02:43:51;88878.78;;;4.79;91.51
46782;BME280;32541;46.298;11.506;2023-04-20T02:46:17;88878.06;;;4.78;90.46
46782;BME280;32541;46.298;11.506;2023-04-20T02:48:42;88881.13;;;4.82;89.86
46782;BME280;32541;46.298;11.506;2023-04-20T02:51:08;88874.22;;;4.81;90.20
46782;BME280;32541;46.298;11.506;2023-04-20T02:53:33;88881.75;;;4.90;87.86
46782;BME280;32541;46.298;11.506;2023-04-20T02:55:59;88879.13;;;4.83;88.07
46782;BME280;32541;46.298;11.506;2023-04-20T02:58:24;88880.88;;;4.88;87.97
46782;BME280;32541;46.298;11.506;2023-04-20T03:00:50;88888.31;;;4.87;88.60
46782;BME280;32541;46.298;11.506;2023-04-20T03:03:17;88891.72;;;4.95;89.01
46782;BME280;32541;46.298;11.506;2023-04-20T03:05:44;88889.53;;;4.94;88.67
46782;BME280;32541;46.298;11.506;2023-04-20T03:08:09;88901.06;;;5.02;87.45
46782;BME280;32541;46.298;11.506;2023-04-20T03:10:34;88896.91;;;5.01;86.10
46782;BME280;32541;46.298;11.506;2023-04-20T03:13:00;88897.78;;;5.03;85.58
46782;BME280;32541;46.298;11.506;2023-04-20T03:15:25;88900.53;;;5.03;85.71
46782;BME280;32541;46.298;11.506;2023-04-20T03:17:50;88897.31;;;5.15;86.15
46782;BME280;32541;46.298;11.506;2023-04-20T03:20:16;88900.91;;;5.17;87.06
46782;BME280;32541;46.298;11.506;2023-04-20T03:22:42;88908.59;;;5.11;89.71
46782;BME280;32541;46.298;11.506;2023-04-20T03:25:07;88905.25;;;5.20;90.67
46782;BME280;32541;46.298;11.506;2023-04-20T03:27:33;88903.47;;;5.15;90.44
46782;BME280;32541;46.298;11.506;2023-04-20T03:29:58;88906.69;;;5.21;90.96
46782;BME280;32541;46.298;11.506;2023-04-20T03:32:24;88907.81;;;5.18;91.01
46782;BME280;32541;46.298;11.506;2023-04-20T03:34:50;88904.13;;;5.23;92.06
46782;BME280;32541;46.298;11.506;2023-04-20T03:37:16;88908.84;;;5.23;92.87
46782;BME280;32541;46.298;11.506;2023-04-20T03:39:41;88908.78;;;5.30;93.96
46782;BME280;32541;46.298;11.506;2023-04-20T03:42:07;88908.44;;;5.26;95.11
46782;BME280;32541;46.298;11.506;2023-04-20T03:44:32;88914.53;;;5.34;95.21
46782;BME280;32541;46.298;11.506;2023-04-20T03:46:58;88910.53;;;5.35;96.11
46782;BME280;32541;46.298;11.506;2023-04-20T03:49:23;88912.78;;;5.29;96.51
46782;BME280;32541;46.298;11.506;2023-04-20T03:51:50;88910.03;;;5.29;96.52
46782;BME280;32541;46.298;11.506;2023-04-20T03:54:15;88911.66;;;5.32;97.04
46782;BME280;32541;46.298;11.506;2023-04-20T03:56:41;88912.31;;;5.40;97.74
46782;BME280;32541;46.298;11.506;2023-04-20T03:59:06;88910.13;;;5.39;97.29
46782;BME280;32541;46.298;11.506;2023-04-20T04:01:31;88913.34;;;5.28;98.26
46782;BME280;32541;46.298;11.506;2023-04-20T04:03:57;88914.13;;;5.38;98.45
46782;BME280;32541;46.298;11.506;2023-04-20T04:06:22;88911.50;;;5.30;98.87
46782;BME280;32541;46.298;11.506;2023-04-20T04:08:47;88906.19;;;5.32;99.90
46782;BME280;32541;46.298;11.506;2023-04-20T04:11:13;88915.50;;;5.12;100.00
46782;BME280;32541;46.298;11.506;2023-04-20T04:13:38;88914.69;;;4.85;100.00
46782;BME280;32541;46.298;11.506;2023-04-20T04:16:04;88911.41;;;4.86;100.00
46782;BME280;32541;46.298;11.506;2023-04-20T04:18:30;88914.69;;;5.02;100.00
46782;BME280;32541;46.298;11.506;2023-04-20T04:20:57;88920.47;;;4.89;100.00
46782;BME280;32541;46.298;11.506;2023-04-20T04:23:23;88913.25;;;4.84;100.00
46782;BME280;32541;46.298;11.506;2023-04-20T04:25:48;88917.59;;;4.87;100.00
46782;BME280;32541;46.298;11.506;2023-04-20T04:28:14;88920.78;;;4.93;100.00
46782;BME280;32541;46.298;11.506;2023-04-20T04:30:41;88919.03;;;5.05;100.00
46782;BME280;32541;46.298;11.506;2023-04-20T04:33:06;88912.28;;;5.06;100.00
46782;BME280;32541;46.298;11.506;2023-04-20T04:35:32;88922.47;;;5.05;100.00
46782;BME280;32541;46.298;11.506;2023-04-20T04:37:58;88913.34;;;5.11;100.00
46782;BME280;32541;46.298;11.506;2023-04-20T04:40:24;88916.38;;;5.15;100.00
46782;BME280;32541;46.298;11.506;2023-04-20T04:42:50;88920.84;;;5.20;100.00
46782;BME280;32541;46.298;11.506;2023-04-20T04:45:15;88921.28;;;5.16;100.00
46782;BME280;32541;46.298;11.506;2023-04-20T04:47:42;88918.72;;;5.18;100.00
46782;BME280;32541;46.298;11.506;2023-04-20T04:50:08;88922.47;;;5.23;100.00
46782;BME280;32541;46.298;11.506;2023-04-20T04:52:35;88918.94;;;5.30;100.00
46782;BME280;32541;46.298;11.506;2023-04-20T04:55:00;88921.81;;;5.32;100.00
46782;BME280;32541;46.298;11.506;2023-04-20T04:57:27;88919.81;;;5.32;100.00
46782;BME280;32541;46.298;11.506;2023-04-20T04:59:52;88921.81;;;5.32;100.00
46782;BME280;32541;46.298;11.506;2023-04-20T05:02:18;88914.31;;;5.40;100.00
46782;BME280;32541;46.298;11.506;2023-04-20T05:04:43;88917.31;;;5.44;100.00
46782;BME280;32541;46.298;11.506;2023-04-20T05:07:09;88911.00;;;5.41;99.96
46782;BME280;32541;46.298;11.506;2023-04-20T05:09:35;88917.75;;;5.40;100.00
46782;BME280;32541;46.298;11.506;2023-04-20T05:12:01;88921.59;;;5.37;100.00
46782;BME280;32541;46.298;11.506;2023-04-20T05:14:29;88920.31;;;5.38;100.00
46782;BME280;32541;46.298;11.506;2023-04-20T05:16:55;88921.28;;;5.33;100.00
46782;BME280;32541;46.298;11.506;2023-04-20T05:19:20;88926.00;;;5.33;100.00
46782;BME280;32541;46.298;11.506;2023-04-20T05:21:46;88925.28;;;5.32;100.00
46782;BME280;32541;46.298;11.506;2023-04-20T05:24:11;88929.78;;;5.37;100.00
46782;BME280;32541;46.298;11.506;2023-04-20T05:26:36;88928.47;;;5.38;100.00
46782;BME280;32541;46.298;11.506;2023-04-20T05:29:02;88924.88;;;5.36;100.00
46782;BME280;32541;46.298;11.506;2023-04-20T05:31:27;88923.75;;;5.39;100.00
46782;BME280;32541;46.298;11.506;2023-04-20T05:33:53;88923.84;;;5.48;100.00
46782;BME280;32541;46.298;11.506;2023-04-20T05:36:18;88921.84;;;5.49;100.00
46782;BME280;32541;46.298;11.506;2023-04-20T05:38:44;88922.84;;;5.53;100.00
46782;BME280;32541;46.298;11.506;2023-04-20T05:41:10;88922.72;;;5.51;99.81
46782;BME280;32541;46.298;11.506;2023-04-20T05:43:35;88927.59;;;5.53;99.60
46782;BME280;32541;46.298;11.506;2023-04-20T05:46:01;88931.03;;;5.53;100.00
46782;BME280;32541;46.298;11.506;2023-04-20T05:48:26;88932.50;;;5.54;99.25
46782;BME280;32541;46.298;11.506;2023-04-20T05:50:52;88927.34;;;5.58;99.55
46782;BME280;32541;46.298;11.506;2023-04-20T05:53:18;88926.31;;;5.54;100.00
46782;BME280;32541;46.298;11.506;2023-04-20T05:55:43;88932.16;;;5.50;100.00
46782;BME280;32541;46.298;11.506;2023-04-20T05:58:08;88931.75;;;5.54;100.00
46782;BME280;32541;46.298;11.506;2023-04-20T06:00:34;88930.22;;;5.60;100.00
46782;BME280;32541;46.298;11.506;2023-04-20T06:02:59;88937.75;;;5.70;100.00
46782;BME280;32541;46.298;11.506;2023-04-20T06:05:25;88942.09;;;5.73;99.99
46782;BME280;32541;46.298;11.506;2023-04-20T06:07:50;88937.91;;;5.72;100.00
46782;BME280;32541;46.298;11.506;2023-04-20T06:10:16;88933.59;;;5.69;99.79
46782;BME280;32541;46.298;11.506;2023-04-20T06:12:41;88935.66;;;5.78;99.71
46782;BME280;32541;46.298;11.506;2023-04-20T06:15:07;88936.53;;;5.80;99.53
46782;BME280;32541;46.298;11.506;2023-04-20T06:17:35;88937.75;;;5.87;99.18
46782;BME280;32541;46.298;11.506;2023-04-20T06:20:02;88941.97;;;5.80;100.00
46782;BME280;32541;46.298;11.506;2023-04-20T06:22:28;88935.22;;;5.54;100.00
46782;BME280;32541;46.298;11.506;2023-04-20T06:24:53;88938.41;;;5.43;100.00
46782;BME280;32541;46.298;11.506;2023-04-20T06:27:18;88935.53;;;5.41;100.00
46782;BME280;32541;46.298;11.506;2023-04-20T06:29:44;88938.75;;;5.30;100.00
46782;BME280;32541;46.298;11.506;2023-04-20T06:32:10;88934.56;;;5.46;100.00
46782;BME280;32541;46.298;11.506;2023-04-20T06:34:35;88933.63;;;5.51;100.00
46782;BME280;32541;46.298;11.506;2023-04-20T06:37:00;88939.19;;;5.71;100.00
46782;BME280;32541;46.298;11.506;2023-04-20T06:39:26;88937.97;;;5.81;100.00
46782;BME280;32541;46.298;11.506;2023-04-20T06:41:51;88943.22;;;5.87;100.00
46782;BME280;32541;46.298;11.506;2023-04-20T06:44:16;88942.94;;;5.92;100.00
46782;BME280;32541;46.298;11.506;2023-04-20T06:46:42;88935.50;;;5.93;100.00
46782;BME280;32541;46.298;11.506;2023-04-20T06:49:08;88945.75;;;6.02;100.00
46782;BME280;32541;46.298;11.506;2023-04-20T06:51:33;88945.69;;;6.19;100.00
46782;BME280;32541;46.298;11.506;2023-04-20T06:53:58;88944.50;;;6.39;95.69
46782;BME280;32541;46.298;11.506;2023-04-20T06:56:24;88946.56;;;5.95;96.14
46782;BME280;32541;46.298;11.506;2023-04-20T06:58:49;88946.31;;;5.83;99.79
46782;BME280;32541;46.298;11.506;2023-04-20T07:01:15;88949.28;;;5.95;99.48
46782;BME280;32541;46.298;11.506;2023-04-20T07:03:40;88946.03;;;6.06;97.53
46782;BME280;32541;46.298;11.506;2023-04-20T07:06:06;88955.81;;;6.09;96.65
46782;BME280;32541;46.298;11.506;2023-04-20T07:08:32;88955.34;;;6.03;95.73
46782;BME280;32541;46.298;11.506;2023-04-20T07:10:57;88955.69;;;6.07;96.14
46782;BME280;32541;46.298;11.506;2023-04-20T07:13:23;88953.72;;;5.90;96.36
46782;BME280;32541;46.298;11.506;2023-04-20T07:15:48;88953.53;;;6.05;96.29
46782;BME280;32541;46.298;11.506;2023-04-20T07:18:14;88959.03;;;6.15;96.32
46782;BME280;32541;46.298;11.506;2023-04-20T07:20:39;88955.31;;;6.20;96.36
46782;BME280;32541;46.298;11.506;2023-04-20T07:23:04;88951.94;;;6.29;96.12
46782;BME280;32541;46.298;11.506;2023-04-20T07:25:30;88950.56;;;6.47;95.59
46782;BME280;32541;46.298;11.506;2023-04-20T07:27:57;88958.59;;;6.45;93.80
46782;BME280;32541;46.298;11.506;2023-04-20T07:30:22;88954.06;;;6.31;95.12
46782;BME280;32541;46.298;11.506;2023-04-20T07:32:48;88951.19;;;6.02;93.79
46782;BME280;32541;46.298;11.506;2023-04-20T07:35:13;88952.16;;;5.97;94.58
46782;BME280;32541;46.298;11.506;2023-04-20T07:37:39;88953.34;;;6.30;93.10
46782;BME280;32541;46.298;11.506;2023-04-20T07:40:05;88954.00;;;6.38;94.79
46782;BME280;32541;46.298;11.506;2023-04-20T07:42:31;88955.50;;;6.58;93.72
46782;BME280;32541;46.298;11.506;2023-04-20T07:44:57;88956.59;;;6.82;93.01
46782;BME280;32541;46.298;11.506;2023-04-20T07:47:23;88954.31;;;6.98;90.80
46782;BME280;32541;46.298;11.506;2023-04-20T07:49:48;88952.47;;;7.10;89.81
46782;BME280;32541;46.298;11.506;2023-04-20T07:52:13;88954.69;;;7.21;90.24
46782;BME280;32541;46.298;11.506;2023-04-20T07:54:39;88958.13;;;7.12;90.15
46782;BME280;32541;46.298;11.506;2023-04-20T07:57:04;88970.81;;;6.81;89.45
46782;BME280;32541;46.298;11.506;2023-04-20T07:59:30;88974.41;;;6.74;91.62
46782;BME280;32541;46.298;11.506;2023-04-20T08:01:59;88973.31;;;6.59;96.84
46782;BME280;32541;46.298;11.506;2023-04-20T08:04:25;88977.03;;;6.54;99.07
46782;BME280;32541;46.298;11.506;2023-04-20T08:06:50;88973.44;;;6.52;99.31
46782;BME280;32541;46.298;11.506;2023-04-20T08:09:16;88977.03;;;6.54;99.72
46782;BME280;32541;46.298;11.506;2023-04-20T08:11:42;88979.84;;;6.37;100.00
46782;BME280;32541;46.298;11.506;2023-04-20T08:14:13;88976.13;;;6.42;100.00
46782;BME280;32541;46.298;11.506;2023-04-20T08:16:39;88974.28;;;6.81;98.44
46782;BME280;32541;46.298;11.506;2023-04-20T08:19:04;88975.22;;;7.03;95.69
46782;BME280;32541;46.298;11.506;2023-04-20T08:21:43;88974.41;;;7.29;95.17
46782;BME280;32541;46.298;11.506;2023-04-20T08:24:08;88966.06;;;7.46;94.66
46782;BME280;32541;46.298;11.506;2023-04-20T08:26:35;88967.97;;;7.63;94.67
46782;BME280;32541;46.298;11.506;2023-04-20T08:29:01;88961.78;;;7.72;91.77
46782;BME280;32541;46.298;11.506;2023-04-20T08:31:27;88957.00;;;7.82;91.42
46782;BME280;32541;46.298;11.506;2023-04-20T08:33:53;88969.97;;;7.81;90.37
46782;BME280;32541;46.298;11.506;2023-04-20T08:36:18;88970.50;;;7.22;91.20
46782;BME280;32541;46.298;11.506;2023-04-20T08:38:44;88964.75;;;7.28;92.41
46782;BME280;32541;46.298;11.506;2023-04-20T08:41:10;88974.44;;;7.48;91.57
46782;BME280;32541;46.298;11.506;2023-04-20T08:43:38;88962.63;;;7.55;92.20
46782;BME280;32541;46.298;11.506;2023-04-20T08:46:04;88961.03;;;7.52;90.15
46782;BME280;32541;46.298;11.506;2023-04-20T08:48:40;88970.56;;;7.70;88.68
46782;BME280;32541;46.298;11.506;2023-04-20T08:51:07;88964.78;;;7.76;87.04
46782;BME280;32541;46.298;11.506;2023-04-20T08:53:33;88971.81;;;7.31;89.21
46782;BME280;32541;46.298;11.506;2023-04-20T08:55:59;88968.84;;;7.65;88.21
46782;BME280;32541;46.298;11.506;2023-04-20T08:58:28;88974.47;;;7.87;86.56
46782;BME280;32541;46.298;11.506;2023-04-20T09:00:55;88971.59;;;7.75;83.12
46782;BME280;32541;46.298;11.506;2023-04-20T09:03:32;88967.09;;;7.51;84.27
46782;BME280;32541;46.298;11.506;2023-04-20T09:05:58;88975.28;;;7.60;85.65
46782;BME280;32541;46.298;11.506;2023-04-20T09:08:37;88981.06;;;7.93;85.41
46782;BME280;32541;46.298;11.506;2023-04-20T09:11:03;88968.97;;;8.06;85.61
46782;BME280;32541;46.298;11.506;2023-04-20T09:13:28;88973.56;;;8.32;85.80
46782;BME280;32541;46.298;11.506;2023-04-20T09:15:54;88962.91;;;8.07;85.02
46782;BME280;32541;46.298;11.506;2023-04-20T09:18:19;88956.41;;;8.12;85.68
46782;BME280;32541;46.298;11.506;2023-04-20T09:20:45;88966.50;;;8.29;88.31
46782;BME280;32541;46.298;11.506;2023-04-20T09:23:18;88959.03;;;7.81;88.24
46782;BME280;32541;46.298;11.506;2023-04-20T09:25:48;88960.31;;;8.00;86.04
46782;BME280;32541;46.298;11.506;2023-04-20T09:28:14;88961.31;;;8.14;86.47
46782;BME280;32541;46.298;11.506;2023-04-20T09:30:45;88959.88;;;8.22;85.36
46782;BME280;32541;46.298;11.506;2023-04-20T09:33:11;88959.56;;;8.18;86.38
46782;BME280;32541;46.298;11.506;2023-04-20T09:35:42;88953.22;;;8.35;83.97
46782;BME280;32541;46.298;11.506;2023-04-20T09:38:09;88960.38;;;8.59;84.88
46782;BME280;32541;46.298;11.506;2023-04-20T09:40:35;88948.16;;;8.41;84.35
46782;BME280;32541;46.298;11.506;2023-04-20T09:43:06;88945.91;;;8.68;83.44
46782;BME280;32541;46.298;11.506;2023-04-20T09:45:33;88943.38;;;8.91;82.54
46782;BME280;32541;46.298;11.506;2023-04-20T09:48:00;88938.44;;;9.00;82.28
46782;BME280;32541;46.298;11.506;2023-04-20T09:50:29;88931.34;;;8.75;85.14
46782;BME280;32541;46.298;11.506;2023-04-20T09:52:55;88933.13;;;8.92;83.03
46782;BME280;32541;46.298;11.506;2023-04-20T09:55:22;88935.56;;;8.98;80.41
46782;BME280;32541;46.298;11.506;2023-04-20T09:57:49;88930.41;;;9.44;77.56
46782;BME280;32541;46.298;11.506;2023-04-20T10:00:15;88939.25;;;9.54;80.03
46782;BME280;32541;46.298;11.506;2023-04-20T10:02:45;88938.25;;;9.92;77.65
46782;BME280;32541;46.298;11.506;2023-04-20T10:05:11;88929.25;;;10.45;71.23
46782;BME280;32541;46.298;11.506;2023-04-20T10:07:36;88925.59;;;10.64;72.86
46782;BME280;32541;46.298;11.506;2023-04-20T10:10:12;88931.56;;;10.49;67.44
46782;BME280;32541;46.298;11.506;2023-04-20T10:12:52;88934.06;;;10.45;68.00
46782;BME280;32541;46.298;11.506;2023-04-20T10:15:18;88938.69;;;10.10;68.73
46782;BME280;32541;46.298;11.506;2023-04-20T10:17:46;88938.84;;;9.27;75.02
46782;BME280;32541;46.298;11.506;2023-04-20T10:20:26;88925.34;;;9.40;74.72
46782;BME280;32541;46.298;11.506;2023-04-20T10:22:53;88928.56;;;9.58;73.57
46782;BME280;32541;46.298;11.506;2023-04-20T10:25:23;88928.28;;;9.75;74.14
46782;BME280;32541;46.298;11.506;2023-04-20T10:28:02;88929.41;;;9.39;73.46
46782;BME280;32541;46.298;11.506;2023-04-20T10:30:34;88929.84;;;9.36;73.99
46782;BME280;32541;46.298;11.506;2023-04-20T10:35:28;88942.91;;;8.64;82.48
46782;BME280;32541;46.298;11.506;2023-04-20T10:37:54;88947.91;;;8.27;84.44
46782;BME280;32541;46.298;11.506;2023-04-20T10:40:26;88930.94;;;8.60;83.34
46782;BME280;32541;46.298;11.506;2023-04-20T10:42:52;88927.31;;;8.98;81.63
46782;BME280;32541;46.298;11.506;2023-04-20T10:45:17;88923.06;;;9.37;78.26
46782;BME280;32541;46.298;11.506;2023-04-20T10:47:42;88926.66;;;9.61;72.91
46782;BME280;32541;46.298;11.506;2023-04-20T10:50:13;88929.44;;;8.78;82.50
46782;BME280;32541;46.298;11.506;2023-04-20T10:52:41;88929.81;;;8.93;79.81
46782;BME280;32541;46.298;11.506;2023-04-20T10:55:18;88924.34;;;9.36;76.27
46782;BME280;32541;46.298;11.506;2023-04-20T10:57:44;88918.75;;;9.55;75.50
46782;BME280;32541;46.298;11.506;2023-04-20T11:00:16;88927.38;;;9.61;75.25
46782;BME280;32541;46.298;11.506;2023-04-20T11:02:49;88916.41;;;9.40;78.77
46782;BME280;32541;46.298;11.506;2023-04-20T11:05:16;88933.50;;;8.67;81.39
46782;BME280;32541;46.298;11.506;2023-04-20T11:07:51;88931.25;;;8.54;82.75
46782;BME280;32541;46.298;11.506;2023-04-20T11:10:18;88920.28;;;8.64;80.13
46782;BME280;32541;46.298;11.506;2023-04-20T11:12:43;88919.38;;;8.30;82.34
46782;BME280;32541;46.298;11.506;2023-04-20T11:15:09;88937.78;;;8.49;80.73
46782;BME280;32541;46.298;11.506;2023-04-20T11:17:36;88924.13;;;8.30;81.22
46782;BME280;32541;46.298;11.506;2023-04-20T11:20:09;88924.28;;;8.72;80.36
46782;BME280;32541;46.298;11.506;2023-04-20T11:22:36;88918.78;;;9.03;81.20
46782;BME280;32541;46.298;11.506;2023-04-20T11:25:05;88909.34;;;9.37;79.60
46782;BME280;32541;46.298;11.506;2023-04-20T11:27:31;88917.56;;;9.58;76.50
46782;BME280;32541;46.298;11.506;2023-04-20T11:29:57;88913.22;;;9.43;71.27
46782;BME280;32541;46.298;11.506;2023-04-20T11:32:25;88913.53;;;9.38;70.11
46782;BME280;32541;46.298;11.506;2023-04-20T11:35:17;88907.09;;;9.24;68.11
46782;BME280;32541;46.298;11.506;2023-04-20T11:37:46;88894.09;;;9.67;70.43
46782;BME280;32541;46.298;11.506;2023-04-20T11:40:14;88900.88;;;9.87;71.87
46782;BME280;32541;46.298;11.506;2023-04-20T11:42:39;88894.88;;;9.79;67.86
46782;BME280;32541;46.298;11.506;2023-04-20T11:45:05;88893.28;;;9.97;69.01
46782;BME280;32541;46.298;11.506;2023-04-20T11:47:30;88915.16;;;9.74;71.49
46782;BME280;32541;46.298;11.506;2023-04-20T11:49:56;88915.63;;;10.03;70.74
46782;BME280;32541;46.298;11.506;2023-04-20T11:52:21;88905.97;;;9.81;67.31
46782;BME280;32541;46.298;11.506;2023-04-20T11:54:46;88889.56;;;9.92;66.67
46782;BME280;32541;46.298;11.506;2023-04-20T11:57:12;88910.25;;;9.30;69.92
46782;BME280;32541;46.298;11.506;2023-04-20T11:59:37;88901.16;;;9.27;70.68
46782;BME280;32541;46.298;11.506;2023-04-20T12:02:03;88904.97;;;9.65;70.78
46782;BME280;32541;46.298;11.506;2023-04-20T12:04:30;88907.06;;;9.55;69.94
46782;BME280;32541;46.298;11.506;2023-04-20T12:06:55;88901.88;;;9.70;66.12
46782;BME280;32541;46.298;11.506;2023-04-20T12:09:23;88904.97;;;9.65;65.30
46782;BME280;32541;46.298;11.506;2023-04-20T12:11:49;88906.72;;;9.81;64.84
46782;BME280;32541;46.298;11.506;2023-04-20T12:14:14;88904.41;;;10.11;64.28
46782;BME280;32541;46.298;11.506;2023-04-20T12:16:39;88908.16;;;9.82;66.42
46782;BME280;32541;46.298;11.506;2023-04-20T12:19:05;88910.50;;;9.76;67.48
46782;BME280;32541;46.298;11.506;2023-04-20T12:21:30;88908.00;;;9.80;63.56
46782;BME280;32541;46.298;11.506;2023-04-20T12:23:56;88904.84;;;9.95;64.93
46782;BME280;32541;46.298;11.506;2023-04-20T12:26:22;88895.94;;;10.07;61.42
46782;BME280;32541;46.298;11.506;2023-04-20T12:28:48;88905.97;;;9.81;62.31
46782;BME280;32541;46.298;11.506;2023-04-20T12:31:13;88908.56;;;10.00;62.16
46782;BME280;32541;46.298;11.506;2023-04-20T12:33:38;88904.31;;;10.09;62.58
46782;BME280;32541;46.298;11.506;2023-04-20T12:36:04;88916.34;;;10.03;61.00
46782;BME280;32541;46.298;11.506;2023-04-20T12:38:29;88925.81;;;9.79;61.19
46782;BME280;32541;46.298;11.506;2023-04-20T12:40:55;88909.41;;;9.48;62.93
46782;BME280;32541;46.298;11.506;2023-04-20T12:43:20;88922.22;;;9.34;62.43
46782;BME280;32541;46.298;11.506;2023-04-20T12:45:46;88925.28;;;9.29;62.94
46782;BME280;32541;46.298;11.506;2023-04-20T12:48:12;88930.31;;;9.32;62.90
46782;BME280;32541;46.298;11.506;2023-04-20T12:50:38;88940.22;;;8.85;70.97
46782;BME280;32541;46.298;11.506;2023-04-20T12:53:03;88942.28;;;8.75;71.87
46782;BME280;32541;46.298;11.506;2023-04-20T12:55:29;88942.75;;;8.62;73.15